Time;durP1;ratioP1;P1;durP2;ratioP2;P2;SDS_P1;SDS_P2;PMS_P1;PMS_P2;Temp;Humidity;BMP_temperature;BMP_pressure;BME280_temperature;BME280_humidity;BME280_pressure;Samples;Min_cycle;Max_cycle;Signal;HPM_P1;HPM_P2
2024/01/01 00:00:14;;;;;;;10.20;3.58;;;;;;;9.68;69.33;99591.59;3612869;39;20499;-65
2024/01/01 00:02:41;;;;;;;10.38;3.95;;;;;;;9.62;69.37;99592.09;3612377;39;20055;-63
2024/01/01 00:05:08;;;;;;;12.27;3.80;;;;;;;9.68;68.75;99608.56;3613511;39;20070;-64
2024/01/01 00:07:35;;;;;;;6.95;2.70;;;;;;;9.65;69.68;99629.41;3612888;39;20051;-64
2024/01/01 00:10:00;;;;;;;11.18;2.97;;;;;;;9.60;70.41;99635.13;3608582;39;20051;-64
2024/01/01 00:12:27;;;;;;;7.18;2.30;;;;;;;9.42;70.52;99618.63;3612968;39;20049;-64
2024/01/01 00:14:52;;;;;;;4.75;1.77;;;;;;;9.34;69.63;99645.16;3614344;39;20051;-63
2024/01/01 00:17:18;;;;;;;3.72;1.70;;;;;;;9.24;71.38;99622.69;3612746;39;20050;-66
2024/01/01 00:19:44;;;;;;;5.65;1.50;;;;;;;9.10;72.49;99634.44;3611503;39;20065;-64
2024/01/01 00:22:09;;;;;;;5.45;2.20;;;;;;;9.00;73.11;99628.06;3613535;39;20058;-63
2024/01/01 00:24:35;;;;;;;6.63;1.98;;;;;;;8.92;74.90;99631.31;3612438;39;20069;-63
2024/01/01 00:27:01;;;;;;;7.03;2.08;;;;;;;8.79;75.64;99630.53;3610809;39;20054;-64
2024/01/01 00:29:27;;;;;;;6.03;2.17;;;;;;;8.72;75.92;99618.53;3612957;39;20071;-64
2024/01/01 00:31:53;;;;;;;4.75;2.40;;;;;;;8.58;77.20;99632.94;3613706;39;20050;-64
2024/01/01 00:34:20;;;;;;;5.05;2.22;;;;;;;8.54;77.81;99632.31;3613173;39;20055;-63
2024/01/01 00:36:48;;;;;;;8.90;3.05;;;;;;;8.38;78.25;99621.00;3612922;39;20043;-63
2024/01/01 00:39:13;;;;;;;9.40;2.83;;;;;;;8.43;78.64;99628.69;3609794;39;20531;-64
2024/01/01 00:41:39;;;;;;;5.85;2.53;;;;;;;8.42;78.69;99635.03;3612492;39;20062;-64
2024/01/01 00:44:05;;;;;;;4.82;2.50;;;;;;;8.35;77.82;99638.09;3613756;39;20413;-64
2024/01/01 00:46:31;;;;;;;6.95;2.60;;;;;;;8.04;77.37;99596.59;3612280;39;20054;-64
2024/01/01 00:48:57;;;;;;;5.50;2.20;;;;;;;8.22;76.69;99639.09;3612851;39;20072;-64
2024/01/01 00:51:23;;;;;;;5.53;1.90;;;;;;;8.21;77.51;99637.38;3603503;39;20296;-63
2024/01/01 00:53:48;;;;;;;5.38;2.25;;;;;;;8.13;77.96;99633.44;3612208;39;20640;-63
2024/01/01 00:56:14;;;;;;;6.05;2.58;;;;;;;8.04;77.55;99622.50;3614027;39;20058;-63
2024/01/01 00:58:40;;;;;;;4.53;2.70;;;;;;;8.05;77.65;99627.75;3611542;39;20522;-62
2024/01/01 01:01:07;;;;;;;4.35;2.88;;;;;;;8.00;78.23;99627.22;3613403;39;20055;-63
2024/01/01 01:03:36;;;;;;;4.43;2.85;;;;;;;7.73;79.20;99581.00;3601238;39;20035;-63
2024/01/01 01:06:03;;;;;;;6.60;3.08;;;;;;;7.96;78.56;99615.03;3613107;39;20103;-63
2024/01/01 01:08:29;;;;;;;7.53;3.15;;;;;;;7.94;79.24;99610.75;3602750;39;20076;-63
2024/01/01 01:10:55;;;;;;;8.27;3.30;;;;;;;7.93;79.86;99638.47;3613109;39;20391;-64
2024/01/01 01:13:21;;;;;;;9.23;3.20;;;;;;;7.89;80.25;99625.28;3613654;39;20061;-63
2024/01/01 01:15:48;;;;;;;7.43;3.08;;;;;;;7.94;79.90;99633.00;3613569;39;20367;-63
2024/01/01 01:18:13;;;;;;;5.25;2.42;;;;;;;7.96;80.16;99632.88;3615353;39;20051;-63
2024/01/01 01:20:39;;;;;;;5.88;2.85;;;;;;;7.26;80.79;99519.16;3611031;39;20065;-63
2024/01/01 01:23:05;;;;;;;11.27;3.67;;;;;;;7.97;81.05;99632.81;3612367;39;20051;-63
2024/01/01 01:25:31;;;;;;;6.80;2.63;;;;;;;7.95;80.37;99621.34;3615303;39;20379;-63
2024/01/01 01:27:57;;;;;;;4.88;2.90;;;;;;;8.01;81.31;99634.28;3613732;39;20055;-63
2024/01/01 01:30:23;;;;;;;8.23;2.47;;;;;;;7.96;80.85;99617.72;3613541;39;20055;-63
2024/01/01 01:32:49;;;;;;;6.45;2.30;;;;;;;7.76;80.66;99596.84;3613545;39;20429;-63
2024/01/01 01:35:15;;;;;;;7.10;2.10;;;;;;;8.04;81.36;99633.22;3614384;39;20058;-63
2024/01/01 01:37:41;;;;;;;4.82;2.40;;;;;;;8.08;81.04;99643.59;3613425;39;20069;-63
2024/01/01 01:40:07;;;;;;;6.03;2.50;;;;;;;8.08;82.21;99646.25;3614729;39;20062;-64
2024/01/01 01:42:33;;;;;;;6.55;2.13;;;;;;;8.03;82.08;99643.06;3613787;39;20123;-63
2024/01/01 01:44:58;;;;;;;5.65;2.13;;;;;;;7.99;83.01;99640.69;3613403;39;20366;-63
2024/01/01 01:47:27;;;;;;;6.00;2.00;;;;;;;8.01;83.25;99645.00;3612474;39;20059;-63
2024/01/01 01:49:53;;;;;;;4.65;2.17;;;;;;;7.97;83.91;99635.47;3613420;39;20143;-63
2024/01/01 01:52:21;;;;;;;6.50;2.22;;;;;;;7.95;84.28;99642.75;3614266;39;20061;-63
2024/01/01 01:54:49;;;;;;;8.30;2.90;;;;;;;7.96;83.55;99636.44;3613798;39;20143;-63
2024/01/01 01:57:15;;;;;;;9.73;2.75;;;;;;;7.93;84.31;99647.38;3611916;39;20046;-63
2024/01/01 01:59:45;;;;;;;8.27;2.50;;;;;;;7.93;84.55;99635.78;3613859;39;20134;-63
2024/01/01 02:02:12;;;;;;;6.90;2.40;;;;;;;7.81;85.19;99619.63;3614682;39;20050;-64
2024/01/01 02:04:38;;;;;;;6.03;2.30;;;;;;;8.03;84.17;99637.72;3612017;39;20063;-63
2024/01/01 02:07:05;;;;;;;10.15;2.53;;;;;;;8.03;84.38;99648.44;3614496;39;20063;-63
2024/01/01 02:09:31;;;;;;;11.88;2.70;;;;;;;8.07;84.67;99649.91;3612914;39;20311;-63
2024/01/01 02:11:57;;;;;;;11.80;2.55;;;;;;;8.11;84.40;99656.75;3613774;39;20055;-63
2024/01/01 02:14:26;;;;;;;5.22;1.75;;;;;;;7.92;83.54;99597.47;3614175;39;20051;-63
2024/01/01 02:16:52;;;;;;;8.88;2.47;;;;;;;8.19;83.83;99639.31;3613981;39;20055;-64
2024/01/01 02:19:26;;;;;;;8.45;2.05;;;;;;;8.22;82.75;99649.81;3613925;39;20066;-63
2024/01/01 02:21:54;;;;;;;7.53;1.88;;;;;;;8.28;82.38;99636.00;3613361;39;20059;-63
2024/01/01 02:24:23;;;;;;;15.00;2.70;;;;;;;8.32;83.32;99648.19;3613579;39;20054;-64
2024/01/01 02:26:49;;;;;;;13.45;2.53;;;;;;;8.18;84.11;99629.56;3612679;39;20315;-64
2024/01/01 02:29:15;;;;;;;14.55;2.63;;;;;;;8.23;85.02;99644.34;3614315;39;20323;-65
2024/01/01 02:31:41;;;;;;;9.52;2.15;;;;;;;8.19;85.43;99650.03;3613006;39;20069;-64
2024/01/01 02:34:07;;;;;;;13.27;2.47;;;;;;;8.16;85.53;99647.56;3612678;39;20086;-64
2024/01/01 02:36:39;;;;;;;11.23;2.95;;;;;;;8.12;86.80;99655.81;3612109;39;20043;-64
2024/01/01 02:39:06;;;;;;;11.77;2.42;;;;;;;8.14;86.32;99656.53;3613501;39;20039;-64
2024/01/01 02:41:36;;;;;;;10.30;2.38;;;;;;;8.18;86.27;99661.69;3612788;39;20051;-64
2024/01/01 02:44:03;;;;;;;9.88;2.78;;;;;;;7.97;86.44;99637.31;3613332;39;20348;-64
2024/01/01 02:46:29;;;;;;;12.55;2.55;;;;;;;8.07;87.00;99652.59;3604105;39;20101;-64
2024/01/01 02:48:55;;;;;;;11.93;2.42;;;;;;;8.07;87.19;99647.25;3612166;39;20051;-65
2024/01/01 02:51:21;;;;;;;13.77;2.63;;;;;;;8.07;88.57;99670.47;3614175;39;20058;-64
2024/01/01 02:53:49;;;;;;;12.30;2.28;;;;;;;8.04;88.72;99658.16;3612795;39;20283;-64
2024/01/01 02:56:16;;;;;;;12.60;2.88;;;;;;;8.05;87.63;99688.44;3612459;39;20050;-64
2024/01/01 02:58:44;;;;;;;11.05;2.42;;;;;;;8.03;88.30;99685.91;3612839;39;20047;-64
2024/01/01 03:01:10;;;;;;;10.30;2.55;;;;;;;7.95;87.79;99665.97;3614136;39;20124;-64
2024/01/01 03:03:35;;;;;;;6.75;2.17;;;;;;;8.06;88.41;99674.97;3612331;39;20062;-64
2024/01/01 03:06:01;;;;;;;10.15;2.15;;;;;;;8.06;87.63;99671.44;3612671;39;20058;-64
2024/01/01 03:08:26;;;;;;;7.53;2.40;;;;;;;8.06;88.07;99674.13;3613577;39;20051;-64
2024/01/01 03:10:52;;;;;;;9.50;2.38;;;;;;;8.02;87.45;99673.47;3612247;39;20043;-64
2024/01/01 03:13:17;;;;;;;9.85;2.25;;;;;;;7.96;87.44;99662.31;3612250;39;20311;-64
2024/01/01 03:15:43;;;;;;;9.68;2.35;;;;;;;7.98;87.05;99658.59;3612873;39;20066;-64
2024/01/01 03:18:11;;;;;;;10.48;2.20;;;;;;;8.02;86.82;99694.88;3615289;39;20039;-64
2024/01/01 03:20:37;;;;;;;8.98;2.33;;;;;;;7.99;87.47;99687.09;3619111;39;20065;-63
2024/01/01 03:23:03;;;;;;;9.48;2.50;;;;;;;7.97;87.50;99678.28;3620322;39;20042;-63
2024/01/01 03:25:29;;;;;;;10.73;2.58;;;;;;;8.00;86.67;99686.09;3616398;39;20059;-63
2024/01/01 03:27:55;;;;;;;12.77;2.30;;;;;;;7.97;86.55;99680.13;3617262;39;20066;-63
2024/01/01 03:30:22;;;;;;;11.63;2.42;;;;;;;7.97;86.24;99686.31;3611394;39;20306;-63
2024/01/01 03:32:49;;;;;;;9.02;2.13;;;;;;;7.98;86.24;99696.03;3612399;39;20078;-63
2024/01/01 03:35:16;;;;;;;7.13;1.95;;;;;;;8.01;86.47;99703.88;3595211;39;20336;-63
2024/01/01 03:37:42;;;;;;;12.73;2.17;;;;;;;7.83;85.99;99663.22;3609680;39;20048;-64
2024/01/01 03:40:09;;;;;;;15.00;2.78;;;;;;;8.00;86.09;99695.97;3613447;39;20047;-64
2024/01/01 03:42:35;;;;;;;13.02;2.88;;;;;;;8.02;86.41;99700.22;3610388;39;20428;-63
2024/01/01 03:45:01;;;;;;;8.98;2.65;;;;;;;8.09;86.30;99698.84;3612668;39;20062;-64
2024/01/01 03:47:27;;;;;;;15.10;2.83;;;;;;;8.04;85.50;99697.44;3611415;39;20059;-63
2024/01/01 03:49:53;;;;;;;13.73;2.70;;;;;;;8.06;86.44;99712.44;3612513;39;20054;-64
2024/01/01 03:52:18;;;;;;;12.25;2.00;;;;;;;8.05;86.13;99704.50;3603376;39;20047;-64
2024/01/01 03:54:44;;;;;;;9.52;2.35;;;;;;;8.05;86.37;99709.84;3610814;39;20051;-64
2024/01/01 03:57:09;;;;;;;10.68;2.70;;;;;;;8.06;86.23;99707.09;3612333;39;20623;-64
2024/01/01 03:59:35;;;;;;;10.48;2.33;;;;;;;8.05;86.45;99702.69;3611454;39;20054;-63
2024/01/01 04:02:01;;;;;;;9.63;2.22;;;;;;;8.06;85.47;99711.59;3609858;39;20066;-63
2024/01/01 04:04:26;;;;;;;9.93;2.17;;;;;;;8.09;85.15;99701.53;3613365;39;20054;-63
2024/01/01 04:06:52;;;;;;;10.43;2.50;;;;;;;8.08;85.64;99715.84;3611600;39;20094;-62
2024/01/01 04:09:18;;;;;;;9.10;2.17;;;;;;;8.12;84.48;99714.69;3613064;39;20055;-63
2024/01/01 04:11:44;;;;;;;6.47;1.90;;;;;;;8.10;84.25;99721.97;3609492;39;20062;-62
2024/01/01 04:14:10;;;;;;;11.02;2.40;;;;;;;8.07;84.31;99711.47;3613621;39;20066;-63
2024/01/01 04:16:37;;;;;;;12.40;2.28;;;;;;;8.08;84.65;99718.53;3610077;39;20051;-63
2024/01/01 04:19:03;;;;;;;12.60;2.40;;;;;;;8.11;84.56;99715.63;3602999;39;20461;-63
2024/01/01 04:21:29;;;;;;;11.10;1.65;;;;;;;8.07;84.30;99714.16;3600947;39;20051;-64
2024/01/01 04:23:57;;;;;;;9.85;2.05;;;;;;;8.13;84.62;99723.56;3611798;39;20077;-64
2024/01/01 04:26:26;;;;;;;7.88;2.03;;;;;;;8.11;84.09;99718.31;3612597;39;20054;-63
2024/01/01 04:28:51;;;;;;;12.82;2.13;;;;;;;8.10;84.07;99721.13;3602306;39;20055;-63
2024/01/01 04:31:17;;;;;;;9.57;2.25;;;;;;;8.09;83.61;99719.41;3612947;39;20092;-63
2024/01/01 04:33:42;;;;;;;6.40;1.60;;;;;;;8.15;83.02;99721.66;3602259;39;20043;-64
2024/01/01 04:36:08;;;;;;;8.30;1.85;;;;;;;8.18;82.75;99734.81;3611209;39;20046;-62
2024/01/01 04:38:34;;;;;;;7.45;2.03;;;;;;;8.20;81.86;99727.53;3612948;39;20303;-62
2024/01/01 04:40:59;;;;;;;9.23;2.40;;;;;;;8.22;81.94;99706.88;3611785;39;20067;-61
2024/01/01 04:43:26;;;;;;;14.38;2.60;;;;;;;8.23;82.04;99718.44;3612031;39;20057;-62
2024/01/01 04:45:52;;;;;;;7.88;1.80;;;;;;;8.25;82.05;99717.38;3612147;39;20046;-62
2024/01/01 04:48:17;;;;;;;11.45;2.35;;;;;;;8.23;81.99;99715.75;3610597;39;20051;-62
2024/01/01 04:50:43;;;;;;;6.45;1.85;;;;;;;8.29;82.20;99718.00;3611427;39;20047;-62
2024/01/01 04:53:08;;;;;;;13.93;2.28;;;;;;;8.22;80.83;99724.78;3612943;39;20085;-61
2024/01/01 04:55:34;;;;;;;9.75;2.10;;;;;;;8.21;81.16;99742.63;3613319;39;20058;-61
2024/01/01 04:57:59;;;;;;;11.55;2.60;;;;;;;8.19;81.79;99733.88;3611553;39;20071;-62
2024/01/01 05:00:25;;;;;;;5.60;2.00;;;;;;;8.18;82.22;99741.97;3612518;39;20047;-62
2024/01/01 05:02:53;;;;;;;8.43;2.38;;;;;;;8.14;81.07;99742.19;3612355;39;20050;-62
2024/01/01 05:05:19;;;;;;;7.15;1.83;;;;;;;8.17;80.63;99733.09;3613063;39;20055;-62
2024/01/01 05:07:44;;;;;;;10.45;2.33;;;;;;;8.19;81.02;99738.38;3609410;39;20114;-61
2024/01/01 05:10:11;;;;;;;9.35;2.47;;;;;;;8.19;81.12;99744.56;3615282;39;20047;-62
2024/01/01 05:12:37;;;;;;;10.25;1.85;;;;;;;8.19;80.63;99747.25;3613203;39;20054;-62
2024/01/01 05:15:04;;;;;;;9.65;1.98;;;;;;;8.21;80.18;99739.94;3612119;39;20062;-62
2024/01/01 05:17:29;;;;;;;9.40;1.65;;;;;;;8.17;80.56;99740.28;3611498;39;20096;-64
2024/01/01 05:19:55;;;;;;;10.05;2.42;;;;;;;8.21;80.59;99745.31;3610564;39;20055;-62
2024/01/01 05:22:21;;;;;;;11.32;2.22;;;;;;;8.21;80.20;99752.47;3602774;39;20043;-62
2024/01/01 05:24:46;;;;;;;6.00;1.98;;;;;;;8.26;80.30;99747.69;3612059;39;20272;-62
2024/01/01 05:27:12;;;;;;;9.68;1.92;;;;;;;8.25;80.45;99754.00;3610197;39;20053;-62
2024/01/01 05:29:41;;;;;;;9.07;2.33;;;;;;;8.24;80.45;99755.78;3611820;39;20366;-62
2024/01/01 05:32:07;;;;;;;11.13;2.72;;;;;;;8.24;80.25;99757.63;3612829;39;20063;-62
2024/01/01 05:34:33;;;;;;;8.40;2.40;;;;;;;8.33;79.72;99779.25;3609052;39;20055;-62
2024/01/01 05:36:58;;;;;;;7.72;2.13;;;;;;;8.29;80.50;99768.88;3612371;39;20058;-62
2024/01/01 05:39:24;;;;;;;10.10;2.08;;;;;;;8.31;80.28;99766.97;3613672;39;20058;-62
2024/01/01 05:41:49;;;;;;;10.02;2.40;;;;;;;8.29;79.70;99766.22;3612018;39;20059;-62
2024/01/01 05:44:15;;;;;;;7.25;1.98;;;;;;;8.30;80.37;99783.97;3608983;39;20085;-62
2024/01/01 05:46:41;;;;;;;9.40;1.90;;;;;;;8.26;80.01;99774.44;3610062;39;20062;-62
2024/01/01 05:49:06;;;;;;;10.30;1.90;;;;;;;8.26;80.03;99771.78;3608648;39;20065;-62
2024/01/01 05:51:32;;;;;;;4.65;1.52;;;;;;;8.21;81.05;99773.91;3611140;39;20402;-62
2024/01/01 05:53:57;;;;;;;8.93;2.00;;;;;;;8.21;81.30;99808.69;3612934;39;20116;-61
2024/01/01 05:56:26;;;;;;;9.88;2.03;;;;;;;8.16;81.32;99792.13;3612674;39;20051;-62
2024/01/01 05:58:52;;;;;;;7.65;2.03;;;;;;;8.16;82.21;99809.03;3612712;39;20051;-62
2024/01/01 06:01:17;;;;;;;7.75;2.28;;;;;;;8.10;82.46;99799.59;3612971;39;20347;-62
2024/01/01 06:03:44;;;;;;;10.18;2.13;;;;;;;8.05;83.49;99793.69;3611736;39;20063;-61
2024/01/01 06:06:10;;;;;;;7.90;1.80;;;;;;;8.02;82.74;99804.59;3606537;39;20059;-62
2024/01/01 06:08:36;;;;;;;7.68;1.98;;;;;;;7.99;83.14;99807.50;3611863;39;20614;-62
2024/01/01 06:11:02;;;;;;;8.32;2.15;;;;;;;7.93;83.26;99786.50;3615046;39;20066;-62
2024/01/01 06:13:27;;;;;;;8.70;2.20;;;;;;;8.01;83.05;99813.59;3606461;39;20095;-62
2024/01/01 06:15:53;;;;;;;6.47;2.05;;;;;;;7.93;83.34;99797.22;3612847;39;20054;-64
2024/01/01 06:18:19;;;;;;;6.43;2.22;;;;;;;7.98;83.47;99816.47;3608695;39;20055;-64
2024/01/01 06:20:45;;;;;;;8.73;2.20;;;;;;;7.97;82.81;99809.41;3605560;39;20047;-63
2024/01/01 06:23:11;;;;;;;6.03;1.75;;;;;;;7.99;83.54;99818.22;3605807;39;20055;-64
2024/01/01 06:25:36;;;;;;;10.35;2.08;;;;;;;7.98;83.12;99823.66;3605300;39;20418;-64
2024/01/01 06:28:02;;;;;;;9.52;1.90;;;;;;;8.00;82.45;99824.41;3608475;39;20047;-64
2024/01/01 06:30:28;;;;;;;7.80;1.55;;;;;;;7.99;83.02;99828.03;3608316;39;20051;-64
2024/01/01 06:32:54;;;;;;;7.25;1.90;;;;;;;7.95;83.03;99837.22;3605419;39;20062;-64
2024/01/01 06:35:19;;;;;;;12.95;2.03;;;;;;;7.99;82.97;99847.66;3607080;39;20304;-64
2024/01/01 06:37:45;;;;;;;9.55;1.92;;;;;;;7.95;83.13;99848.78;3605815;39;20051;-64
2024/01/01 06:40:11;;;;;;;7.95;1.70;;;;;;;7.93;83.11;99858.75;3605230;39;20081;-64
2024/01/01 06:42:36;;;;;;;7.07;1.75;;;;;;;7.90;82.85;99861.63;3605148;39;20035;-64
2024/01/01 06:45:07;;;;;;;9.98;2.22;;;;;;;7.88;82.95;99858.19;3608493;39;20092;-64
2024/01/01 06:47:33;;;;;;;8.02;1.80;;;;;;;7.90;83.01;99867.00;3605261;39;20395;-65
2024/01/01 06:49:59;;;;;;;4.28;1.73;;;;;;;7.94;82.50;99875.66;3606414;39;20119;-64
2024/01/01 06:52:24;;;;;;;11.90;2.15;;;;;;;7.90;82.67;99861.63;3605227;39;20062;-65
2024/01/01 06:54:50;;;;;;;6.38;1.65;;;;;;;8.02;82.86;99876.84;3609493;39;20063;-64
2024/01/01 06:57:15;;;;;;;9.63;2.13;;;;;;;8.03;82.93;99875.91;3605684;39;20047;-64
2024/01/01 06:59:41;;;;;;;7.40;1.98;;;;;;;8.02;83.11;99876.84;3608407;39;20043;-64
2024/01/01 07:02:06;;;;;;;9.82;2.03;;;;;;;8.06;82.73;99888.25;3610722;39;20422;-64
2024/01/01 07:04:32;;;;;;;10.65;2.17;;;;;;;8.13;81.76;99889.53;3606733;39;20059;-64
2024/01/01 07:06:58;;;;;;;10.63;2.17;;;;;;;8.10;83.00;99885.25;3608422;39;20073;-63
2024/01/01 07:09:23;;;;;;;9.30;2.45;;;;;;;8.10;82.89;99895.94;3608211;39;20047;-64
2024/01/01 07:11:49;;;;;;;9.82;1.98;;;;;;;8.09;82.95;99904.09;3611176;39;20086;-63
2024/01/01 07:14:14;;;;;;;7.60;1.95;;;;;;;8.09;83.24;99891.56;3609711;39;20399;-65
2024/01/01 07:16:40;;;;;;;8.23;1.75;;;;;;;8.08;82.80;99908.56;3607231;39;20053;-65
2024/01/01 07:19:06;;;;;;;8.63;2.58;;;;;;;8.08;82.75;99915.75;3608902;39;20063;-64
2024/01/01 07:21:31;;;;;;;9.05;2.20;;;;;;;8.10;82.66;99912.00;3608891;39;20391;-65
2024/01/01 07:23:57;;;;;;;9.07;2.08;;;;;;;8.08;83.11;99916.59;3608349;39;20463;-65
2024/01/01 07:26:23;;;;;;;7.50;1.88;;;;;;;8.08;82.77;99921.94;3606601;39;20050;-64
2024/01/01 07:28:48;;;;;;;8.07;1.63;;;;;;;8.09;82.94;99918.31;3606300;39;20058;-64
2024/01/01 07:31:14;;;;;;;9.02;2.30;;;;;;;8.09;83.26;99929.03;3608022;39;20059;-64
2024/01/01 07:33:39;;;;;;;10.70;2.05;;;;;;;8.04;83.26;99936.50;3608280;39;20047;-65
2024/01/01 07:36:11;;;;;;;7.32;1.42;;;;;;;7.99;84.21;99927.94;3608412;39;20363;-65
2024/01/01 07:38:39;;;;;;;12.10;2.28;;;;;;;8.02;84.16;99927.69;3607238;39;20384;-65
2024/01/01 07:41:04;;;;;;;6.72;2.20;;;;;;;8.05;84.03;99935.53;3606464;39;20050;-64
2024/01/01 07:43:30;;;;;;;10.13;2.00;;;;;;;8.06;84.00;99934.59;3610853;39;20058;-64
2024/01/01 07:45:55;;;;;;;12.27;2.45;;;;;;;8.08;83.47;99931.78;3612397;39;20379;-64
2024/01/01 07:48:21;;;;;;;9.73;3.08;;;;;;;8.06;84.05;99939.94;3609679;39;20058;-64
2024/01/01 07:50:46;;;;;;;6.25;1.92;;;;;;;8.09;84.02;99933.53;3610665;39;20058;-65
2024/01/01 07:53:12;;;;;;;8.65;2.25;;;;;;;8.03;83.47;99932.13;3605342;39;20059;-64
2024/01/01 07:55:38;;;;;;;7.65;2.20;;;;;;;8.02;83.56;99929.53;3606906;39;20103;-64
2024/01/01 07:58:03;;;;;;;9.38;2.47;;;;;;;7.93;84.24;99941.72;3610071;39;20059;-64
2024/01/01 08:00:29;;;;;;;12.45;2.88;;;;;;;7.83;84.80;99936.09;3606928;39;20402;-65
2024/01/01 08:02:55;;;;;;;9.05;2.10;;;;;;;7.82;85.41;99952.22;3607097;39;20050;-64
2024/01/01 08:05:20;;;;;;;6.15;2.17;;;;;;;7.80;85.37;99956.81;3605625;39;20066;-64
2024/01/01 08:07:47;;;;;;;7.43;2.13;;;;;;;7.72;85.65;99954.66;3608863;39;20055;-64
2024/01/01 08:10:15;;;;;;;9.40;2.10;;;;;;;7.80;84.72;99975.53;3606304;39;20054;-65
2024/01/01 08:12:41;;;;;;;8.43;2.40;;;;;;;7.83;84.65;99980.69;3610870;39;20055;-64
2024/01/01 08:15:07;;;;;;;8.07;2.15;;;;;;;7.85;84.79;99979.66;3607071;39;20062;-64
2024/01/01 08:17:32;;;;;;;9.88;1.90;;;;;;;7.85;85.53;99998.38;3607507;39;20081;-64
2024/01/01 08:19:58;;;;;;;8.88;2.20;;;;;;;7.85;85.49;99984.16;3607836;39;20058;-64
2024/01/01 08:22:24;;;;;;;8.18;2.17;;;;;;;7.89;85.32;99994.53;3606115;39;20067;-64
2024/01/01 08:24:49;;;;;;;11.93;4.32;;;;;;;7.94;85.52;99996.94;3595347;39;20055;-65
2024/01/01 08:27:15;;;;;;;10.27;2.30;;;;;;;7.95;85.73;99998.66;3607813;39;20095;-65
2024/01/01 08:29:41;;;;;;;9.25;1.92;;;;;;;7.97;86.02;99999.41;3605881;39;20055;-65
2024/01/01 08:32:07;;;;;;;8.82;2.25;;;;;;;7.91;86.57;99983.75;3604129;39;20116;-64
2024/01/01 08:34:33;;;;;;;10.93;2.30;;;;;;;7.98;86.72;100003.81;3605870;39;20067;-64
2024/01/01 08:37:03;;;;;;;10.68;2.20;;;;;;;7.97;86.78;100007.44;3604292;39;20110;-64
2024/01/01 08:39:29;;;;;;;11.70;2.25;;;;;;;8.02;87.16;100024.03;3606459;39;20054;-63
2024/01/01 08:41:55;;;;;;;9.32;1.75;;;;;;;8.07;87.27;100018.41;3611769;39;20047;-63
2024/01/01 08:44:20;;;;;;;7.25;2.00;;;;;;;8.11;86.85;100030.63;3607884;39;20051;-64
2024/01/01 08:46:46;;;;;;;8.77;2.10;;;;;;;8.13;87.28;100029.59;3609317;39;20054;-66
2024/01/01 08:49:12;;;;;;;9.63;2.40;;;;;;;8.06;88.02;100030.94;3605425;39;20063;-65
2024/01/01 08:51:37;;;;;;;10.40;2.42;;;;;;;8.07;87.96;100029.97;3606558;39;20043;-64
2024/01/01 08:54:07;;;;;;;10.13;2.67;;;;;;;8.04;89.08;100035.53;3605793;39;20391;-64
2024/01/01 08:56:33;;;;;;;9.40;2.25;;;;;;;8.01;88.29;100033.03;3605195;39;20112;-64
2024/01/01 08:58:59;;;;;;;10.77;3.17;;;;;;;7.84;88.95;100017.22;3607880;39;20055;-65
2024/01/01 09:01:24;;;;;;;7.40;1.92;;;;;;;7.94;89.45;100034.41;3605253;39;20050;-64
2024/01/01 09:03:50;;;;;;;10.00;2.80;;;;;;;8.04;89.21;100048.91;3608525;39;20087;-64
2024/01/01 09:06:16;;;;;;;9.82;2.25;;;;;;;8.08;88.86;100047.75;3605329;39;20051;-65
2024/01/01 09:08:43;;;;;;;9.45;1.88;;;;;;;8.05;89.15;100053.28;3610251;39;20461;-64
2024/01/01 09:11:09;;;;;;;12.50;2.72;;;;;;;8.10;89.02;100067.25;3604250;39;20054;-63
2024/01/01 09:13:35;;;;;;;10.98;2.30;;;;;;;8.08;89.33;100063.81;3605032;39;20055;-63
2024/01/01 09:16:01;;;;;;;10.40;1.85;;;;;;;8.09;89.30;100052.16;3604565;39;20067;-63
2024/01/01 09:18:27;;;;;;;8.05;2.17;;;;;;;8.14;88.80;100060.75;3604843;39;20051;-63
2024/01/01 09:20:52;;;;;;;10.65;2.40;;;;;;;8.12;89.03;100075.22;3605355;39;20368;-63
2024/01/01 09:23:18;;;;;;;9.50;2.20;;;;;;;8.12;89.37;100081.41;3609496;39;20271;-64
2024/01/01 09:25:43;;;;;;;13.80;2.50;;;;;;;8.04;90.19;100083.69;3606528;39;20070;-65
2024/01/01 09:28:09;;;;;;;11.70;2.47;;;;;;;8.01;91.15;100078.53;3607410;39;20380;-64
2024/01/01 09:30:35;;;;;;;12.93;2.85;;;;;;;7.99;92.67;100091.19;3605050;39;20351;-64
2024/01/01 09:33:01;;;;;;;9.15;1.88;;;;;;;7.96;93.02;100091.38;3605098;39;20065;-64
2024/01/01 09:35:26;;;;;;;8.05;2.63;;;;;;;7.99;93.88;100096.53;3603751;39;20058;-63
2024/01/01 09:37:53;;;;;;;8.52;2.15;;;;;;;8.04;92.91;100097.09;3606670;39;20052;-64
2024/01/01 09:40:21;;;;;;;13.15;2.80;;;;;;;8.05;93.23;100087.22;3605255;39;20077;-65
2024/01/01 09:42:48;;;;;;;10.10;2.13;;;;;;;8.09;93.87;100103.03;3606259;39;20079;-64
2024/01/01 09:45:14;;;;;;;11.82;2.35;;;;;;;8.10;94.11;100111.91;3606232;39;20127;-64
2024/01/01 09:47:41;;;;;;;12.25;2.67;;;;;;;8.12;94.37;100110.84;3606689;39;20061;-63
2024/01/01 09:50:07;;;;;;;6.00;2.25;;;;;;;8.16;93.35;100099.97;3607114;39;20304;-63
2024/01/01 09:52:33;;;;;;;10.20;2.78;;;;;;;8.16;93.07;100114.19;3609962;39;20124;-63
2024/01/01 09:54:59;;;;;;;8.98;2.30;;;;;;;8.14;92.51;100116.09;3607579;39;20439;-63
2024/01/01 09:57:24;;;;;;;14.55;2.53;;;;;;;8.20;92.71;100117.53;3605236;39;20050;-64
2024/01/01 09:59:50;;;;;;;12.18;2.42;;;;;;;8.16;92.51;100118.69;3598212;39;20043;-64
2024/01/01 10:02:16;;;;;;;7.97;2.28;;;;;;;8.14;91.73;100118.78;3605673;39;20070;-63
2024/01/01 10:04:42;;;;;;;10.15;2.20;;;;;;;8.21;92.18;100135.31;3609863;39;20311;-64
2024/01/01 10:07:08;;;;;;;8.90;2.30;;;;;;;8.26;91.48;100142.09;3606812;39;20106;-63
2024/01/01 10:09:48;;;;;;;14.65;3.10;;;;;;;8.30;91.91;100143.63;3605655;39;20086;-63
2024/01/01 10:12:15;;;;;;;9.43;1.85;;;;;;;8.36;91.25;100147.72;3605826;39;20574;-63
2024/01/01 10:14:49;;;;;;;11.57;2.20;;;;;;;8.36;90.51;100137.03;3605214;39;20057;-63
2024/01/01 10:17:17;;;;;;;13.25;2.25;;;;;;;8.35;90.08;100146.03;3606450;39;20082;-63
2024/01/01 10:19:51;;;;;;;10.55;2.35;;;;;;;8.27;89.97;100124.22;3606955;39;20135;-63
2024/01/01 10:22:18;;;;;;;10.90;2.78;;;;;;;8.36;90.08;100132.53;3609269;39;20051;-63
2024/01/01 10:24:46;;;;;;;7.95;2.30;;;;;;;8.49;88.95;100148.69;3610931;39;20050;-63
2024/01/01 10:27:18;;;;;;;13.82;3.03;;;;;;;8.23;88.50;100106.63;3610251;39;20047;-63
2024/01/01 10:29:49;;;;;;;12.75;2.53;;;;;;;8.54;88.82;100151.94;3606601;39;20055;-63
2024/01/01 10:32:18;;;;;;;7.88;2.33;;;;;;;8.64;89.53;100151.38;3608621;39;20062;-64
2024/01/01 10:34:48;;;;;;;9.43;2.67;;;;;;;8.83;88.39;100167.97;3610298;39;20039;-64
2024/01/01 10:37:20;;;;;;;7.68;2.15;;;;;;;8.80;87.63;100134.19;3608214;39;20101;-65
2024/01/01 10:39:50;;;;;;;10.52;2.45;;;;;;;9.11;85.74;100161.66;3611427;39;20051;-64
2024/01/01 10:42:16;;;;;;;7.53;2.78;;;;;;;9.09;85.13;100173.44;3606730;39;20105;-64
2024/01/01 10:44:42;;;;;;;9.85;2.47;;;;;;;9.11;85.73;100172.38;3607431;39;20319;-64
2024/01/01 10:47:09;;;;;;;10.27;2.85;;;;;;;9.05;85.36;100173.63;3610046;39;20106;-64
2024/01/01 10:49:44;;;;;;;18.58;5.75;;;;;;;8.89;86.15;100156.84;3608671;39;20290;-64
2024/01/01 10:52:49;;;;;;;10.82;3.15;;;;;;;9.07;85.72;100184.28;3609451;39;20061;-65
2024/01/01 10:55:53;;;;;;;7.82;2.28;;;;;;;8.92;86.56;100167.38;3609262;39;20058;-65
2024/01/01 10:58:44;;;;;;;11.63;2.30;;;;;;;9.00;86.68;100181.09;3610305;39;20047;-64
2024/01/01 11:01:20;;;;;;;13.25;2.67;;;;;;;8.95;87.10;100172.53;3609648;39;20492;-64
2024/01/01 11:03:47;;;;;;;10.70;2.88;;;;;;;9.00;88.22;100197.19;3609175;39;20058;-66
2024/01/01 11:06:31;;;;;;;12.77;2.83;;;;;;;8.92;88.35;100186.13;3606041;39;20290;-65
2024/01/01 11:09:18;;;;;;;12.25;2.53;;;;;;;8.94;88.98;100189.53;3606469;39;20074;-65
2024/01/01 11:11:51;;;;;;;11.20;3.45;;;;;;;8.97;89.24;100197.38;3606353;39;20062;-65
2024/01/01 11:14:44;;;;;;;13.98;3.20;;;;;;;9.13;90.47;100191.03;3607774;39;20065;-65
2024/01/01 11:17:11;;;;;;;11.00;2.70;;;;;;;9.35;89.62;100196.69;3608992;39;20383;-63
2024/01/01 11:19:46;;;;;;;10.95;3.03;;;;;;;9.24;88.65;100162.53;3608557;39;20043;-63
2024/01/01 11:22:23;;;;;;;14.52;2.78;;;;;;;9.56;86.09;100194.38;3607849;39;20110;-65
2024/01/01 11:24:50;;;;;;;13.75;2.85;;;;;;;9.52;85.29;100204.47;3606762;39;20095;-64
2024/01/01 11:27:47;;;;;;;12.05;2.90;;;;;;;9.46;83.90;100191.47;3609008;39;20071;-62
2024/01/01 11:30:14;;;;;;;14.88;3.13;;;;;;;9.52;84.19;100204.47;3605611;39;20341;-63
2024/01/01 11:32:40;;;;;;;13.30;3.13;;;;;;;9.54;83.83;100196.31;3607481;39;20050;-64
2024/01/01 11:35:32;;;;;;;9.13;2.38;;;;;;;9.57;84.06;100201.47;3607425;39;20048;-63